createdAt,value
2022-10-17T00:02:03.412Z,99.90
2022-10-17T00:04:30.235Z,99.90
2022-10-17T00:06:57.030Z,99.90
2022-10-17T00:09:23.773Z,99.90
2022-10-17T00:11:50.503Z,99.90
2022-10-17T00:14:17.243Z,99.90
2022-10-17T00:16:43.998Z,99.90
2022-10-17T00:19:10.739Z,99.90
2022-10-17T00:21:37.467Z,99.90
2022-10-17T00:24:04.366Z,99.90
2022-10-17T00:26:31.096Z,99.90
2022-10-17T00:28:57.943Z,99.90
2022-10-17T00:31:24.764Z,99.90
2022-10-17T00:33:51.936Z,99.90
2022-10-17T00:36:19.611Z,99.90
2022-10-17T00:38:46.752Z,99.90
2022-10-17T00:41:14.120Z,99.90
2022-10-17T00:43:54.640Z,99.90
2022-10-17T00:46:21.515Z,99.90
2022-10-17T00:48:49.071Z,99.90
2022-10-17T00:51:15.839Z,99.90
2022-10-17T00:53:43.125Z,99.90
2022-10-17T00:56:09.860Z,99.90
2022-10-17T00:58:36.586Z,99.90
2022-10-17T01:01:03.473Z,99.90
2022-10-17T01:03:30.249Z,99.90
2022-10-17T01:05:57.083Z,99.90
2022-10-17T01:08:23.812Z,99.90
2022-10-17T01:10:50.538Z,99.90
2022-10-17T01:13:28.573Z,99.90
2022-10-17T01:15:55.534Z,99.90
2022-10-17T01:18:28.479Z,99.90
2022-10-17T01:20:55.240Z,99.90
2022-10-17T01:23:28.840Z,99.90
2022-10-17T01:26:01.850Z,99.90
2022-10-17T01:28:34.597Z,99.90
2022-10-17T01:31:12.714Z,99.90
2022-10-17T01:33:42.277Z,99.90
2022-10-17T01:36:13.159Z,99.90
2022-10-17T01:38:44.657Z,99.90
2022-10-17T01:41:14.414Z,99.90
2022-10-17T01:43:41.796Z,99.90
2022-10-17T01:46:27.285Z,99.90
2022-10-17T01:48:54.044Z,99.90
2022-10-17T01:51:22.919Z,99.90
2022-10-17T01:53:54.467Z,99.90
2022-10-17T01:56:21.201Z,99.90
2022-10-17T01:58:50.201Z,99.90
2022-10-17T02:01:16.998Z,99.90
2022-10-17T02:03:43.960Z,99.90
2022-10-17T02:06:10.764Z,99.90
2022-10-17T02:08:47.606Z,99.90
2022-10-17T02:11:15.403Z,99.90
2022-10-17T02:14:00.968Z,99.90
2022-10-17T02:16:39.753Z,99.90
2022-10-17T02:19:32.819Z,99.90
2022-10-17T02:22:17.983Z,99.90
2022-10-17T02:24:47.544Z,99.90
2022-10-17T02:27:18.505Z,99.90
2022-10-17T02:29:57.386Z,99.90
2022-10-17T02:32:25.256Z,99.90
2022-10-17T02:34:53.017Z,99.90
2022-10-17T02:37:20.213Z,99.90
2022-10-17T02:39:46.950Z,99.90
2022-10-17T02:42:13.778Z,99.90
2022-10-17T02:44:40.874Z,99.90
2022-10-17T02:47:09.523Z,99.90
2022-10-17T02:49:36.658Z,99.90
2022-10-17T02:52:13.365Z,99.90
2022-10-17T02:54:41.436Z,99.90
2022-10-17T02:57:09.892Z,99.90
2022-10-17T02:59:36.773Z,99.90
2022-10-17T03:02:04.396Z,99.90
2022-10-17T03:04:31.116Z,99.90
2022-10-17T03:06:57.834Z,99.90
2022-10-17T03:09:24.591Z,99.90
2022-10-17T03:11:51.377Z,99.90
2022-10-17T03:14:18.111Z,99.90
2022-10-17T03:16:44.852Z,99.90
2022-10-17T03:19:11.615Z,99.90
2022-10-17T03:21:38.380Z,99.90
2022-10-17T03:24:05.433Z,99.90
2022-10-17T03:26:32.173Z,99.90
2022-10-17T03:28:59.026Z,99.90
2022-10-17T03:31:25.779Z,99.90
2022-10-17T03:33:52.585Z,99.90
2022-10-17T03:36:19.389Z,99.90
2022-10-17T03:38:46.441Z,99.90
2022-10-17T03:41:13.259Z,99.90
2022-10-17T03:43:40.111Z,99.90
2022-10-17T03:46:07.077Z,99.90
2022-10-17T03:48:33.878Z,99.90
2022-10-17T03:51:01.622Z,99.90
2022-10-17T03:53:28.513Z,99.90
2022-10-17T03:55:55.260Z,99.90
2022-10-17T03:58:22.012Z,99.90
2022-10-17T04:00:48.809Z,99.90
2022-10-17T04:03:17.385Z,99.90
2022-10-17T04:05:44.233Z,99.90
2022-10-17T04:08:10.974Z,99.90
2022-10-17T04:10:37.735Z,99.90
2022-10-17T04:13:04.704Z,99.90
2022-10-17T04:15:31.424Z,99.90
2022-10-17T04:17:58.177Z,99.90
2022-10-17T04:20:24.951Z,99.90
2022-10-17T04:22:51.700Z,99.90
2022-10-17T04:25:18.417Z,99.90
2022-10-17T04:27:45.265Z,99.90
2022-10-17T04:30:11.992Z,99.90
2022-10-17T04:32:39.239Z,99.90
2022-10-17T04:35:06.187Z,99.90
2022-10-17T04:37:32.954Z,99.90
2022-10-17T04:39:59.692Z,99.90
2022-10-17T04:42:26.490Z,99.90
2022-10-17T04:44:53.295Z,99.90
2022-10-17T04:47:20.137Z,99.90
2022-10-17T04:49:46.911Z,99.90
2022-10-17T04:52:13.629Z,99.90
2022-10-17T04:54:40.385Z,99.90
2022-10-17T04:57:07.151Z,99.90
2022-10-17T04:59:33.955Z,99.90
2022-10-17T05:02:00.690Z,99.90
2022-10-17T05:04:27.444Z,99.90
2022-10-17T05:06:54.179Z,99.90
2022-10-17T05:09:20.953Z,99.90
2022-10-17T05:11:47.716Z,99.90
2022-10-17T05:14:15.149Z,99.90
2022-10-17T05:16:41.922Z,99.90
2022-10-17T05:19:08.879Z,99.90
2022-10-17T05:21:37.471Z,99.90
2022-10-17T05:24:07.801Z,99.90
2022-10-17T05:26:34.696Z,99.90
2022-10-17T05:29:03.041Z,99.90
2022-10-17T05:31:30.127Z,99.90
2022-10-17T05:34:00.449Z,99.90
2022-10-17T05:36:27.230Z,99.90
2022-10-17T05:38:53.970Z,99.90
2022-10-17T05:41:20.711Z,99.90
2022-10-17T05:43:47.475Z,99.90
2022-10-17T05:46:14.212Z,99.90
2022-10-17T05:48:41.034Z,99.90
2022-10-17T05:51:08.871Z,99.90
2022-10-17T05:53:36.267Z,99.90
2022-10-17T05:56:03.813Z,99.90
2022-10-17T05:58:50.348Z,99.90
2022-10-17T06:01:17.440Z,99.90
2022-10-17T06:03:44.242Z,99.90
2022-10-17T06:06:11.563Z,99.10
2022-10-17T06:08:38.606Z,94.70
2022-10-17T06:11:09.082Z,90.90
2022-10-17T06:13:37.170Z,89.60
2022-10-17T06:16:04.003Z,90.20
2022-10-17T06:18:30.744Z,90.80
2022-10-17T06:21:07.849Z,92.60
2022-10-17T06:23:34.602Z,95.20
2022-10-17T06:26:01.478Z,97.50
2022-10-17T06:28:28.265Z,99.90
2022-10-17T06:30:55.047Z,99.90
2022-10-17T06:33:23.347Z,98.80
2022-10-17T06:35:53.627Z,92.10
2022-10-17T06:38:20.551Z,87.20
2022-10-17T06:40:47.283Z,80.50
2022-10-17T06:43:14.079Z,76.00
2022-10-17T06:45:40.833Z,72.70
2022-10-17T06:48:07.793Z,71.20
2022-10-17T06:50:34.904Z,68.70
2022-10-17T06:53:01.662Z,67.80
2022-10-17T06:55:28.387Z,65.70
2022-10-17T06:57:55.833Z,65.30
2022-10-17T07:00:23.625Z,65.20
2022-10-17T07:02:50.510Z,65.20
2022-10-17T07:05:19.263Z,62.90
2022-10-17T07:07:47.478Z,60.80
2022-10-17T07:10:16.484Z,59.00
2022-10-17T07:12:44.850Z,57.90
2022-10-17T07:15:11.709Z,56.50
2022-10-17T07:17:38.463Z,55.80
2022-10-17T07:20:05.404Z,54.30
2022-10-17T07:22:32.179Z,55.50
2022-10-17T07:24:58.899Z,55.00
2022-10-17T07:27:25.677Z,53.40
2022-10-17T07:29:52.402Z,52.60
2022-10-17T07:32:19.119Z,52.30
2022-10-17T07:34:45.819Z,52.00
2022-10-17T07:37:12.628Z,52.00
2022-10-17T07:39:40.194Z,51.60
2022-10-17T07:42:07.865Z,52.90
2022-10-17T07:44:35.597Z,53.20
2022-10-17T07:47:02.669Z,50.50
2022-10-17T07:49:29.554Z,50.60
2022-10-17T07:51:56.513Z,50.10
2022-10-17T07:54:24.724Z,49.10
2022-10-17T07:56:51.537Z,48.20
2022-10-17T07:59:18.639Z,47.60
2022-10-17T08:01:45.409Z,47.40
2022-10-17T08:04:12.192Z,47.10
2022-10-17T08:06:39.194Z,47.20
2022-10-17T08:09:06.018Z,47.30
2022-10-17T08:11:32.811Z,47.00
2022-10-17T08:13:59.545Z,46.90
2022-10-17T08:16:26.322Z,47.30
2022-10-17T08:18:53.143Z,46.70
2022-10-17T08:21:19.903Z,46.30
2022-10-17T08:23:46.863Z,46.30
2022-10-17T08:26:16.841Z,45.60
2022-10-17T08:28:43.734Z,46.30
2022-10-17T08:31:11.526Z,45.60
2022-10-17T08:33:38.302Z,46.30
2022-10-17T08:36:05.209Z,45.60
2022-10-17T08:38:35.311Z,45.40
2022-10-17T08:41:03.662Z,45.10
2022-10-17T08:43:37.805Z,45.30
2022-10-17T08:46:05.570Z,45.90
2022-10-17T08:48:33.536Z,44.60
2022-10-17T08:51:26.593Z,44.10
2022-10-17T08:53:53.401Z,44.30
2022-10-17T08:56:36.570Z,44.20
2022-10-17T08:59:28.220Z,43.90
2022-10-17T09:01:58.801Z,43.80
2022-10-17T09:04:33.341Z,44.30
2022-10-17T09:07:02.822Z,44.40
2022-10-17T09:09:35.691Z,43.80
2022-10-17T09:12:04.849Z,43.80
2022-10-17T09:14:38.424Z,42.70
2022-10-17T09:17:08.244Z,41.40
2022-10-17T09:19:42.734Z,42.20
2022-10-17T09:22:10.557Z,41.70
2022-10-17T09:24:44.279Z,40.90
2022-10-17T09:27:15.272Z,40.60
2022-10-17T09:29:43.933Z,40.80
2022-10-17T09:32:12.279Z,40.70
2022-10-17T09:34:39.019Z,41.20
2022-10-17T09:37:07.629Z,40.60
2022-10-17T09:39:34.415Z,41.50
2022-10-17T09:42:01.250Z,41.10
2022-10-17T09:44:35.086Z,39.90
2022-10-17T09:47:01.824Z,40.60
2022-10-17T09:49:35.741Z,39.10
2022-10-17T09:52:06.084Z,40.20
2022-10-17T09:54:36.537Z,40.40
2022-10-17T09:57:04.430Z,40.70
2022-10-17T09:59:35.087Z,41.90
2022-10-17T10:02:20.156Z,42.90
2022-10-17T10:05:07.658Z,42.60
2022-10-17T10:07:38.285Z,41.50
2022-10-17T10:10:06.339Z,41.30
2022-10-17T10:12:37.278Z,40.40
2022-10-17T10:15:24.309Z,42.30
2022-10-17T10:17:51.031Z,41.90
2022-10-17T10:20:34.971Z,41.70
2022-10-17T10:23:05.344Z,40.60
2022-10-17T10:25:32.056Z,41.40
2022-10-17T10:28:00.727Z,40.70
2022-10-17T10:30:29.357Z,41.60
2022-10-17T10:32:56.499Z,42.30
2022-10-17T10:35:24.388Z,40.70
2022-10-17T10:37:51.952Z,42.00
2022-10-17T10:40:29.277Z,42.70
2022-10-17T10:42:59.229Z,43.70
2022-10-17T10:45:52.815Z,42.50
2022-10-17T10:48:22.709Z,42.20
2022-10-17T10:50:50.394Z,43.40
2022-10-17T10:53:20.181Z,43.60
2022-10-17T10:55:48.056Z,44.30
2022-10-17T10:58:32.961Z,43.90
2022-10-17T11:01:00.993Z,44.60
2022-10-17T11:03:33.759Z,45.90
2022-10-17T11:06:02.528Z,46.90
2022-10-17T11:08:37.499Z,47.80
2022-10-17T11:11:07.311Z,48.30
2022-10-17T11:13:36.387Z,49.20
2022-10-17T11:16:06.301Z,49.20
2022-10-17T11:18:41.085Z,49.50
2022-10-17T11:21:10.946Z,50.50
2022-10-17T11:23:40.421Z,50.50
2022-10-17T11:26:11.699Z,51.10
2022-10-17T11:28:38.467Z,52.20
2022-10-17T11:31:14.899Z,52.40
2022-10-17T11:33:46.198Z,53.90
2022-10-17T11:36:12.930Z,53.30
2022-10-17T11:38:39.781Z,55.30
2022-10-17T11:41:06.750Z,56.70
2022-10-17T11:43:48.718Z,57.20
2022-10-17T11:46:23.887Z,56.40
2022-10-17T11:48:56.694Z,56.80
2022-10-17T11:54:18.252Z,56.90
2022-10-17T11:56:45.009Z,57.10
2022-10-17T11:59:30.397Z,56.70
2022-10-17T12:01:57.954Z,55.30
2022-10-17T12:04:49.397Z,57.60
2022-10-17T12:07:25.692Z,56.10
2022-10-17T12:10:11.306Z,56.80
2022-10-17T12:12:40.568Z,56.00
2022-10-17T12:15:13.388Z,55.20
2022-10-17T12:17:41.112Z,56.10
2022-10-17T12:20:26.346Z,56.30
2022-10-17T12:22:55.943Z,56.90
2022-10-17T12:25:23.957Z,58.10
2022-10-17T12:27:50.788Z,59.20
2022-10-17T12:30:17.650Z,59.60
2022-10-17T12:33:07.398Z,59.80
2022-10-17T12:35:35.305Z,59.40
2022-10-17T12:38:03.127Z,57.90
2022-10-17T12:40:35.713Z,59.20
2022-10-17T12:43:02.800Z,56.70
2022-10-17T12:45:44.819Z,54.90
2022-10-17T12:48:11.553Z,56.10
2022-10-17T12:51:12.148Z,56.00
2022-10-17T12:53:43.798Z,56.20
2022-10-17T12:56:10.508Z,56.20
2022-10-17T12:58:37.230Z,56.40
2022-10-17T13:01:24.301Z,56.10
2022-10-17T13:03:52.592Z,55.80
2022-10-17T13:06:23.349Z,55.00
2022-10-17T13:08:56.105Z,55.50
2022-10-17T13:11:25.479Z,54.60
2022-10-17T13:13:56.211Z,55.40
2022-10-17T13:18:48.659Z,56.00
2022-10-17T13:21:15.837Z,54.90
2022-10-17T13:23:42.581Z,54.70
2022-10-17T13:26:26.103Z,55.10
2022-10-17T13:29:06.311Z,54.90
2022-10-17T13:31:36.716Z,54.60
2022-10-17T13:34:04.436Z,54.70
2022-10-17T13:36:31.832Z,54.20
2022-10-17T13:39:06.361Z,54.30
2022-10-17T13:41:36.510Z,54.30
2022-10-17T13:44:04.651Z,54.80
2022-10-17T13:46:37.870Z,54.10
2022-10-17T13:49:09.942Z,54.80
2022-10-17T13:51:36.748Z,55.30
2022-10-17T13:54:05.893Z,54.00
2022-10-17T13:56:32.695Z,54.40
2022-10-17T13:59:00.517Z,54.60
2022-10-17T14:01:27.689Z,54.10
2022-10-17T14:04:07.926Z,55.20
2022-10-17T14:06:37.457Z,54.90
2022-10-17T14:09:05.421Z,54.70
2022-10-17T14:11:33.566Z,54.40
2022-10-17T14:14:00.745Z,55.20
2022-10-17T14:16:27.992Z,55.10
2022-10-17T14:18:54.777Z,55.50
2022-10-17T14:21:43.394Z,55.90
2022-10-17T14:24:17.051Z,55.20
2022-10-17T14:27:01.953Z,55.80
2022-10-17T14:29:28.751Z,55.90
2022-10-17T14:32:13.522Z,56.70
2022-10-17T14:34:40.730Z,57.20
2022-10-17T14:37:11.522Z,57.60
2022-10-17T14:39:38.280Z,57.50
2022-10-17T14:42:05.044Z,57.40
2022-10-17T14:44:32.355Z,57.90
2022-10-17T14:47:00.189Z,57.60
2022-10-17T14:49:38.688Z,58.00
2022-10-17T14:52:14.896Z,58.60
2022-10-17T14:54:44.626Z,59.00
2022-10-17T14:57:31.632Z,59.50
2022-10-17T14:59:58.419Z,59.80
2022-10-17T15:02:25.553Z,59.90
2022-10-17T15:04:52.457Z,60.00
2022-10-17T15:07:19.404Z,60.80
2022-10-17T15:09:47.326Z,60.90
2022-10-17T15:12:15.224Z,61.10
2022-10-17T15:14:43.326Z,61.50
2022-10-17T15:17:14.268Z,61.80
2022-10-17T15:19:41.162Z,62.40
2022-10-17T15:22:07.929Z,62.70
2022-10-17T15:24:34.648Z,63.00
2022-10-17T15:27:01.389Z,63.80
2022-10-17T15:29:28.459Z,64.30
2022-10-17T15:31:55.197Z,65.10
2022-10-17T15:34:21.978Z,65.60
2022-10-17T15:36:51.775Z,66.00
2022-10-17T15:39:18.502Z,66.50
2022-10-17T15:41:45.652Z,67.10
2022-10-17T15:44:12.391Z,67.80
2022-10-17T15:46:39.180Z,68.40
2022-10-17T15:49:07.686Z,68.80
2022-10-17T15:51:34.437Z,69.00
2022-10-17T15:54:01.785Z,69.00
2022-10-17T15:56:38.571Z,69.30
2022-10-17T15:59:05.877Z,70.00
2022-10-17T16:01:32.695Z,70.30
2022-10-17T16:03:59.511Z,70.80
2022-10-17T16:06:26.347Z,71.40
2022-10-17T16:08:53.106Z,71.70
2022-10-17T16:11:19.888Z,72.00
2022-10-17T16:13:51.332Z,72.20
2022-10-17T16:16:18.113Z,72.70
2022-10-17T16:18:44.893Z,73.00
2022-10-17T16:21:12.642Z,73.10
2022-10-17T16:23:39.429Z,73.30
2022-10-17T16:26:07.420Z,73.80
2022-10-17T16:28:34.327Z,75.70
2022-10-17T16:31:01.184Z,75.70
2022-10-17T16:33:27.940Z,76.40
2022-10-17T16:35:54.741Z,76.70
2022-10-17T16:38:21.464Z,77.40
2022-10-17T16:40:48.166Z,78.00
2022-10-17T16:43:14.974Z,78.50
2022-10-17T16:45:41.706Z,79.30
2022-10-17T16:48:08.701Z,80.00
2022-10-17T16:50:38.377Z,80.80
2022-10-17T16:53:05.110Z,81.80
2022-10-17T16:55:31.844Z,82.40
2022-10-17T16:58:00.005Z,82.90
2022-10-17T17:00:26.803Z,83.20
2022-10-17T17:02:53.581Z,83.60
2022-10-17T17:05:20.332Z,85.00
2022-10-17T17:07:48.106Z,85.70
2022-10-17T17:10:14.859Z,87.30
2022-10-17T17:12:41.609Z,87.70
2022-10-17T17:15:08.699Z,90.20
2022-10-17T17:17:54.850Z,90.20
2022-10-17T17:20:22.355Z,91.40
2022-10-17T17:22:50.892Z,91.80
2022-10-17T17:25:17.667Z,93.20
2022-10-17T17:27:44.386Z,93.40
2022-10-17T17:30:11.387Z,94.40
2022-10-17T17:32:38.113Z,94.90
2022-10-17T17:35:05.053Z,95.40
2022-10-17T17:37:32.038Z,96.50
2022-10-17T17:39:58.909Z,97.50
2022-10-17T17:42:25.759Z,99.10
2022-10-17T17:44:52.521Z,99.10
2022-10-17T17:47:19.593Z,99.90
2022-10-17T17:49:46.339Z,99.90
2022-10-17T17:52:13.066Z,99.90
2022-10-17T17:54:40.977Z,99.90
2022-10-17T17:57:08.121Z,99.90
2022-10-17T17:59:34.938Z,99.90
2022-10-17T18:02:02.958Z,99.90
2022-10-17T18:04:29.805Z,99.90
2022-10-17T18:06:56.572Z,99.90
2022-10-17T18:09:23.987Z,99.90
2022-10-17T18:11:50.699Z,99.90
2022-10-17T18:14:19.216Z,99.90
2022-10-17T18:16:45.949Z,99.90
2022-10-17T18:19:12.998Z,99.90
2022-10-17T18:21:39.740Z,99.90
2022-10-17T18:24:06.743Z,99.90
2022-10-17T18:26:33.583Z,99.90
2022-10-17T18:29:00.422Z,99.90
2022-10-17T18:31:32.364Z,99.90
2022-10-17T18:34:00.311Z,99.90
2022-10-17T18:36:27.409Z,99.90
2022-10-17T18:38:54.310Z,99.90
2022-10-17T18:41:21.836Z,99.90
2022-10-17T18:43:48.780Z,99.90
2022-10-17T18:46:16.430Z,99.90
2022-10-17T18:48:44.564Z,99.90
2022-10-17T18:51:11.616Z,99.90
2022-10-17T18:53:41.727Z,99.90
2022-10-17T18:56:08.754Z,99.90
2022-10-17T18:58:36.547Z,99.90
2022-10-17T19:01:04.082Z,99.90
2022-10-17T19:03:31.093Z,99.90
2022-10-17T19:06:01.881Z,99.90
2022-10-17T19:08:28.652Z,99.90
2022-10-17T19:10:55.411Z,99.90
2022-10-17T19:13:22.145Z,99.90
2022-10-17T19:15:48.978Z,99.90
2022-10-17T19:18:15.723Z,99.90
2022-10-17T19:20:42.514Z,99.90
2022-10-17T19:23:09.247Z,99.90
2022-10-17T19:25:36.017Z,99.90
2022-10-17T19:28:02.775Z,99.90
2022-10-17T19:30:29.512Z,99.90
2022-10-17T19:32:56.290Z,99.90
2022-10-17T19:35:23.032Z,99.90
2022-10-17T19:37:49.771Z,99.90
2022-10-17T19:40:16.590Z,99.90
2022-10-17T19:42:43.319Z,99.90
2022-10-17T19:45:10.236Z,99.90
2022-10-17T19:47:37.030Z,99.90
2022-10-17T19:52:36.316Z,99.90
2022-10-17T19:55:03.108Z,99.90
2022-10-17T19:57:29.877Z,99.90
2022-10-17T19:59:56.945Z,99.90
2022-10-17T20:02:23.670Z,99.90
2022-10-17T20:05:06.292Z,99.90
2022-10-17T20:07:37.109Z,99.90
2022-10-17T20:10:04.706Z,99.90
2022-10-17T20:12:31.780Z,99.90
2022-10-17T20:14:59.105Z,99.90
2022-10-17T20:17:26.046Z,99.90
2022-10-17T20:19:52.815Z,99.90
2022-10-17T20:22:19.587Z,99.90
2022-10-17T20:24:46.315Z,99.90
2022-10-17T20:27:13.073Z,99.90
2022-10-17T20:29:39.816Z,99.90
2022-10-17T20:32:06.584Z,99.90
2022-10-17T20:34:35.657Z,99.90
2022-10-17T20:37:02.603Z,99.90
2022-10-17T20:39:29.435Z,99.90
2022-10-17T20:41:56.175Z,99.90
2022-10-17T20:44:22.891Z,99.90
2022-10-17T20:47:01.300Z,99.90
2022-10-17T20:49:29.234Z,99.90
2022-10-17T20:51:55.970Z,99.90
2022-10-17T20:54:22.827Z,99.90
2022-10-17T20:56:49.562Z,99.90
2022-10-17T20:59:16.730Z,99.90
2022-10-17T21:01:43.621Z,99.90
2022-10-17T21:04:40.314Z,99.90
2022-10-17T21:06:57.331Z,99.90
2022-10-17T21:09:24.085Z,99.90
2022-10-17T21:11:54.344Z,99.90
2022-10-17T21:14:21.338Z,99.90
2022-10-17T21:16:48.282Z,99.90
2022-10-17T21:19:15.193Z,99.90
2022-10-17T21:21:42.782Z,99.90
2022-10-17T21:24:13.013Z,99.90
2022-10-17T21:26:40.293Z,99.90
2022-10-17T21:29:07.189Z,99.90
2022-10-17T21:31:34.615Z,99.90
2022-10-17T21:34:05.427Z,99.90
2022-10-17T21:36:32.157Z,99.90
2022-10-17T21:38:59.045Z,99.90
2022-10-17T21:41:26.465Z,99.90
2022-10-17T21:43:56.757Z,99.90
2022-10-17T21:46:23.668Z,99.90
2022-10-17T21:48:51.878Z,99.90
2022-10-17T21:51:21.498Z,99.90
2022-10-17T21:53:48.280Z,99.90
2022-10-17T21:56:18.956Z,99.90
2022-10-17T21:58:45.868Z,99.90
2022-10-17T22:01:13.651Z,99.90
2022-10-17T22:03:44.142Z,99.90
2022-10-17T22:09:01.029Z,99.90
2022-10-17T22:11:28.571Z,99.90
2022-10-17T22:13:55.927Z,99.90
2022-10-17T22:16:22.731Z,99.90
2022-10-17T22:18:49.516Z,99.90
2022-10-17T22:21:17.198Z,99.90
2022-10-17T22:23:44.507Z,99.90
2022-10-17T22:26:11.425Z,99.90
2022-10-17T22:28:38.420Z,99.90
2022-10-17T22:31:05.198Z,99.90
2022-10-17T22:33:32.806Z,99.90
2022-10-17T22:35:59.979Z,99.90
2022-10-17T22:38:26.731Z,99.90
2022-10-17T22:40:53.574Z,99.90
2022-10-17T22:43:20.327Z,99.90
2022-10-17T22:45:56.979Z,99.90
2022-10-17T22:48:23.930Z,99.90
2022-10-17T22:50:50.874Z,99.90
2022-10-17T22:53:24.940Z,99.90
2022-10-17T22:56:03.515Z,99.90
2022-10-17T22:58:30.548Z,99.90
2022-10-17T23:00:57.339Z,99.90
2022-10-17T23:03:24.387Z,99.90
2022-10-17T23:05:51.178Z,99.90
2022-10-17T23:08:18.186Z,99.90
2022-10-17T23:10:45.209Z,99.90
2022-10-17T23:13:11.979Z,99.90
2022-10-17T23:15:38.960Z,99.90
2022-10-17T23:18:05.806Z,99.90
2022-10-17T23:20:32.638Z,99.90
2022-10-17T23:22:59.378Z,99.90
2022-10-17T23:25:26.116Z,99.90
2022-10-17T23:27:52.883Z,99.90
2022-10-17T23:30:19.659Z,99.90
2022-10-17T23:32:46.374Z,99.90
2022-10-17T23:35:13.097Z,99.90
2022-10-17T23:37:39.817Z,99.90
2022-10-17T23:40:07.023Z,99.90
2022-10-17T23:42:33.776Z,99.90
2022-10-17T23:45:00.549Z,99.90
2022-10-17T23:47:27.334Z,99.90
2022-10-17T23:49:54.127Z,99.90
2022-10-17T23:52:20.870Z,99.90
2022-10-17T23:54:47.608Z,99.90
2022-10-17T23:57:14.348Z,99.90
2022-10-17T23:59:41.168Z,99.90
